METAR Data
IDs: Format: Raw Decoded Include TAF

Data at: 2055 UTC 19 May 2019

KTVK 192035Z AUTO 25014G25KT 10SM FEW026 SCT040 BKN046 15/12 A2981 RMK AO2
KTVK 192015Z AUTO 24014G20KT 10SM FEW023 BKN041 15/12 A2980 RMK AO2
KTVK 191955Z AUTO 26014G20KT 10SM FEW023 SCT039 15/13 A2979 RMK AO2
KTVK 191935Z AUTO 25016G20KT 10SM FEW023 SCT036 15/12 A2979 RMK AO2
KTVK 191915Z AUTO 25020G24KT 10SM FEW036 15/12 A2978 RMK AO2
KTVK 191855Z AUTO 25019G25KT 10SM SCT023 BKN034 15/12 A2978 RMK AO2
KTVK 191835Z AUTO 25016G23KT 10SM BKN023 BKN032 15/12 A2977 RMK AO2
KTVK 191815Z AUTO 26015G20KT 10SM FEW017 FEW026 SCT033 15/13 A2976 RMK AO2
KTVK 191755Z AUTO 27015G19KT 10SM SCT015 15/13 A2975 RMK AO2
KTVK 191735Z AUTO 25010KT 10SM FEW015 SCT021 15/14 A2974 RMK AO2
KTVK 191715Z AUTO 25016KT 10SM SCT015 BKN020 15/14 A2973 RMK AO2
KTVK 191655Z AUTO 25014G18KT 10SM SCT015 15/14 A2972 RMK AO2
KTVK 191635Z AUTO 25014KT 10SM FEW013 SCT020 16/15 A2971 RMK AO2
KTVK 191615Z AUTO 28017KT 10SM FEW015 SCT022 SCT042 17/15 A2969 RMK AO2
KTVK 191555Z AUTO 27015KT 10SM FEW013 SCT022 SCT037 17/15 A2968 RMK AO2
KTVK 191535Z AUTO 26012G17KT 10SM FEW008 SCT016 SCT090 17/16 A2967 RMK AO2
KTVK 191515Z AUTO 25011KT 9SM -RA SCT008 16/16 A2967 RMK AO2
KTVK 191455Z AUTO 24009KT 7SM -RA FEW005 SCT010 15/15 A2967 RMK AO2 P0004
KTVK 191435Z AUTO 24008KT 2SM -RA SCT001 BKN007 BKN012 15/15 A2967 RMK AO2 VSBY 1 1/2V3 P0003
KTVK 191415Z AUTO 24009KT 10SM FEW009 SCT015 15/15 A2965 RMK AO2
KTVK 191355Z AUTO 22008KT 10SM FEW017 SCT044 15/15 A2964 RMK AO2
KTVK 191335Z AUTO 21007KT 10SM FEW011 14/14 A2964 RMK AO2
KTVK 191315Z AUTO 29005KT 10SM -RA CLR 14/14 A2960 RMK AO2
KTVK 191255Z AUTO 34007KT 5SM -RA CLR 14/14 A2959 RMK AO2 P0003
KTVK 191235Z AUTO 32011KT 8SM -RA CLR 14/14 A2959 RMK AO2 P0001
KTVK 191215Z AUTO 32007KT 5SM -RA FEW002 SCT010 BKN016 14/14 A2959 RMK AO2 P0001
KTVK 191155Z AUTO 31008KT 2SM +RA SCT001 OVC007 15/15 A2959 RMK AO2 P0010
KTVK 191135Z AUTO 20008KT 10SM BKN007 15/15 A2961 RMK AO2
KTVK 191115Z AUTO 28007KT 10SM BKN007 15/15 A2957 RMK AO2
KTVK 191055Z AUTO 31005KT 10SM -RA FEW007 15/15 A2956 RMK AO2
KTVK 191035Z AUTO 31004KT 10SM SCT004 SCT010 15/15 A2957 RMK AO2
KTVK 191015Z AUTO 27004KT 10SM SCT002 15/15 A2959 RMK AO2
KTVK 190955Z AUTO 28006KT 10SM FEW003 15/15 A2959 RMK AO2 P0004
KTVK 190935Z AUTO 29010KT 2SM -RA BKN001 BKN014 15/15 A2958 RMK AO2 P0004
KTVK 190915Z AUTO 28007KT 1 3/4SM -RA SCT001 BKN005 OVC014 15/15 A2959 RMK AO2 P0002
KTVK 190855Z AUTO 27006KT 2 1/2SM -RA BKN006 BKN011 15/15 A2959 RMK AO2 P0002
KTVK 190835Z AUTO 26007KT 3SM -RA BKN006 BKN009 16/16 A2958 RMK AO2 P0001
KTVK 190815Z AUTO 23011KT 4SM BR BKN009 BKN012 17/17 A2957 RMK AO2 P0001
KTVK 190755Z AUTO 22007KT 10SM SCT009 BKN013 BKN040 17/17 A2957 RMK AO2
KTVK 190735Z AUTO 21009KT 10SM SCT009 BKN013 BKN040 17/17 A2957 RMK AO2
KTVK 190715Z AUTO 21009KT 10SM SCT010 BKN016 BKN034 17/17 A2957 RMK AO2
KTVK 190655Z AUTO 19011KT 10SM BKN010 BKN016 BKN034 17/17 A2957 RMK AO2
KTVK 190635Z AUTO 19009KT 10SM BKN008 17/17 A2957 RMK AO2
KTVK 190615Z AUTO 19012G17KT 10SM BKN008 17/17 A2958 RMK AO2
KTVK 190555Z AUTO 19010KT 10SM FEW008 SCT011 17/17 A2959 RMK AO2
KTVK 190535Z AUTO 18010KT 10SM BKN006 17/17 A2959 RMK AO2
KTVK 190515Z AUTO 19009KT 10SM BKN006 17/17 A2958 RMK AO2
KTVK 190455Z AUTO 18009KT 10SM BKN005 17/17 A2958 RMK AO2 P0001
KTVK 190435Z AUTO 17012KT 2 1/2SM BR BKN004 17/17 A2959 RMK AO2 P0001
KTVK 190415Z AUTO 18013KT 10SM BKN004 17/17 A2960 RMK AO2
KTVK 190355Z AUTO 18009G17KT 10SM OVC003 17/17 A2959 RMK AO2
KTVK 190335Z AUTO 17011KT 10SM OVC003 17/17 A2959 RMK AO2
KTVK 190315Z AUTO 14008KT 10SM BKN003 17/17 A2958 RMK AO2
KTVK 190255Z AUTO 11008KT 10SM OVC004 17/17 A2957 RMK AO2
KTVK 190235Z AUTO 12007KT 10SM OVC004 17/17 A2957 RMK AO2
KTVK 190215Z AUTO 10006KT 10SM BKN005 17/17 A2958 RMK AO2
KTVK 190155Z AUTO 00000KT 10SM BKN005 17/17 A2957 RMK AO2
KTVK 190135Z AUTO 06008KT 10SM BKN005 17/17 A2956 RMK AO2
KTVK 190115Z AUTO 05003KT 10SM BKN003 17/17 A2958 RMK AO2
KTVK 190055Z AUTO 04008G15KT 9SM SCT002 17/17 A2954 RMK AO2 P0002
KTVK 190035Z AUTO 06009KT 6SM -RA CLR 17/17 A2958 RMK AO2 P0002
KTVK 190015Z AUTO 06004KT 7SM -RA FEW005 17/17 A2961 RMK AO2 P0001
KTVK 182355Z AUTO 04004KT 8SM -RA FEW005 17/17 A2962 RMK AO2 P0008
KTVK 182335Z AUTO 27004KT 7SM -RA FEW001 SCT006 17/17 A2963 RMK AO2 P0007
KTVK 182315Z AUTO 29008KT 3SM RA SCT001 BKN006 OVC025 17/17 A2963 RMK AO2 P0005
KTVK 182255Z AUTO 30006KT 1 3/4SM +RA OVC001 17/17 A2964 RMK AO2 P0076
KTVK 182235Z AUTO 30011G24KT 1/2SM +RA OVC001 17/17 A2963 RMK AO2 P0064
KTVK 182215Z AUTO 26015G21KT 1 3/4SM +RA SCT001 BKN008 OVC015 17/17 A2963 RMK AO2 P0011
KTVK 182155Z AUTO 26017KT 3SM -RA FEW001 BKN008 BKN020 19/19 A2963 RMK AO2 VSBY 2V5 P0062
KTVK 182135Z AUTO 06004KT 5SM -RA BKN001 BKN010 19/18 A2962 RMK AO2 P0055
KTVK 182115Z AUTO 15003G18KT 1/2SM +RA OVC001 19/19 A2963 RMK AO2 P0041
KTVK 182055Z AUTO 14005KT 3SM -RA FEW018 22/20 A2961 RMK AO2 P0005
KTVK 182035Z AUTO 16012G21KT 10SM FEW018 22/20 A2963 RMK AO2
KTVK 182015Z AUTO 16015G19KT 10SM CLR 23/20 A2962 RMK AO2
KTVK 181955Z AUTO 18014KT 10SM CLR 24/20 A2963 RMK AO2
KTVK 181935Z AUTO 17012KT 10SM CLR 24/19 A2963 RMK AO2
KTVK 181915Z AUTO 18016G22KT 10SM CLR 25/20 A2964 RMK AO2
KTVK 181855Z AUTO 15015G21KT 10SM CLR 25/19 A2962 RMK AO2
KTVK 181835Z AUTO 17017G24KT 10SM FEW090 24/19 A2964 RMK AO2
KTVK 181815Z AUTO 17014KT 10SM FEW065 24/19 A2964 RMK AO2
KTVK 181755Z AUTO 15016G21KT 10SM CLR 23/20 A2964 RMK AO2
KTVK 181735Z AUTO 15015G22KT 10SM CLR 23/20 A2966 RMK AO2
KTVK 181715Z AUTO 16014G18KT 10SM CLR 23/20 A2966 RMK AO2
KTVK 181655Z AUTO 15014KT 10SM CLR 22/20 A2967 RMK AO2
KTVK 181635Z AUTO 16012KT 10SM FEW110 22/20 A2967 RMK AO2
KTVK 181615Z AUTO 16016G21KT 10SM FEW110 22/20 A2967 RMK AO2
KTVK 181555Z AUTO 15014KT 10SM CLR 21/20 A2967 RMK AO2
KTVK 181535Z AUTO 15009KT 10SM CLR 19/19 A2966 RMK AO2
KTVK 181515Z AUTO 13006KT 10SM CLR 19/19 A2966 RMK AO2
KTVK 181455Z AUTO 14009KT 10SM CLR 19/18 A2968 RMK AO2
KTVK 181435Z AUTO 14008KT 10SM CLR 19/19 A2969 RMK AO2
KTVK 181415Z AUTO 17007KT 10SM CLR 19/18 A2973 RMK AO2
KTVK 181355Z AUTO 20007KT 10SM CLR 18/18 A2974 RMK AO2
KTVK 181335Z AUTO 20008KT 10SM CLR 18/18 A2974 RMK AO2
KTVK 181315Z AUTO 16007KT 10SM FEW030 18/18 A2974 RMK AO2
KTVK 181255Z AUTO 19006KT 7SM BKN030 17/17 A2973 RMK AO2 P0019
KTVK 181235Z AUTO 14008KT 9SM FEW001 SCT010 BKN030 17/17 A2974 RMK AO2 P0019
KTVK 181215Z AUTO 16008KT 1 1/4SM RA BKN001 BKN011 OVC026 17/17 A2973 RMK AO2 P0018
KTVK 181155Z AUTO 21009KT 10SM FEW038 20/16 A2970 RMK AO2
KTVK 181135Z AUTO 16010KT 10SM CLR 19/16 A2968 RMK AO2
KTVK 181115Z AUTO 16010KT 10SM CLR 19/15 A2968 RMK AO2
KTVK 181055Z AUTO 16011KT 10SM CLR 19/15 A2969 RMK AO2
KTVK 181035Z AUTO 15008KT 10SM CLR 18/16 A2969 RMK AO2
KTVK 181015Z AUTO 14008KT 10SM FEW037 FEW046 18/16 A2970 RMK AO2
KTVK 180955Z AUTO 15009KT 10SM CLR 18/16 A2971 RMK AO2
KTVK 180935Z AUTO 15008KT 10SM CLR 18/16 A2972 RMK AO2
KTVK 180915Z AUTO 15008KT 10SM CLR 18/16 A2972 RMK AO2